Sabadell, Spain

3:53 PM CEST on September 04, 2015 (GMT +0200)
Sabadell | | Change Station
CLOSE
Current Station
Airport
Location: Sabadell,
Elevation: 820 ft
Nearby Weather Stations

Elev 820 ft 41.52 °N, 2.11 °E | Updated 23 minutes ago

Rain Showers
Showers Rain
70 °F
Feels Like 70 °F
N
15
Wind Variable Wind from WNW

Today
High -- | Low -- °F
--% Chance of Precip.
Yesterday
High -- | Low -- °F
Precip. -- in
7:20 AM 8:20 PM
Waning Gibbous, 59% visible
Pressure 29.98 in
Visibility 6.2 miles
Clouds Few 4000 ft
Scattered Clouds 7000 ft
Dew Point 61 °F
Humidity 73%
Rainfall 0.00 in
Snow Depth Not available.
UV 7 out of 12
Pollen Not available.
Air Quality Not available.
Flu Activity Not available.
METAR LELL 041330Z 29013KT 260V320 9999 SHRA FEW040 SCT070TCU 21/16 Q1015
Pressure 29.98 in
Visibility 6.2 miles
Clouds Few 4000 ft
Scattered Clouds 7000 ft
Dew Point 61 °F
Humidity 73%
Rainfall 0.00 in
Snow Depth Not available.
UV 7 out of 12
Pollen Not available.
Air Quality Not available.
Flu Activity Not available.
METAR LELL 041330Z 29013KT 260V320 9999 SHRA FEW040 SCT070TCU 21/16 Q1015

10-Day Weather Forecast

×

Almanac

Astronomy

Sep. 04, 2015 Rise Set
Actual Time
Civil Twilight
Nautical Twilight
Astronomical Twilight
Moon
Length of Visible Light
Length of Day
Tomorrow will be .
, % of the Moon is Illuminated

Today's Extremes

Country Highs Country Lows

Community

WunderPhotos

Upload Photos

1,852,181 photos uploaded!

WunderBlogs® & News

Nearby

Air Quality

  Air Quality AQ Index Pollutant
Not available.

Snow Depth

Station Depth Elevation

Earthquake Activity

City Distance Mag. Time & Date
Minimum magnitude displayed is 2.5.

Coastal Water Temperatures

Place Temperature

Stations

Nearby Weather Stations

Station Location Temp. Windchill Dew Point Humidity Wind Precip. Elev Updated Type